Upernavik

KL  EN  DA
ASIAQ
Weather Now GREENLAND SURVEY
Updated [WGT/WGST] Temperature [°C] Wind [m/s] Air pressure [hPa] Relative humidity [%] Precipitation [mm]
Present Wind chill Speed Max
18.04 00:00-13,3-22,15,6 ⇖7,41002650,3
17.04 23:00-13,6-23,26,6 ⇖8,01001730,4
17.04 22:00-13,0-21,85,9 ⇖7,61001590,5
17.04 21:00-13,5-22,25,5 ⇖6,61000680,3
17.04 20:00-13,6-22,65,8 ⇖6,81000670,0
17.04 19:00-13,9-21,54,2 ⇖4,71000750,4
17.04 18:00-13,8-22,75,6 ⇖6,4999760,1
17.04 17:00-14,0-22,24,8 ⇖5,9999730,0
17.04 16:00-14,2-22,64,9 ⇐5,7998720,7
17.04 15:00-14,1-21,64,0 ⇖4,9998700,5
17.04 14:00-14,7-21,83,6 ⇐4,8997783,4
17.04 13:00-14,40,00,9 ⇑1,5997790,0
17.04 12:00-14,8-21,43,1 ⇖5,2997791,1
17.04 11:00-14,9-21,22,9 ⇗3,5996721,9
17.04 10:00-14,70,00,5 ⇖1,9996723,6
17.04 09:00-15,80,01,1 ⇐1,6996740,0
17.04 08:00-16,40,01,1 ⇖1,5995781,3
17.04 07:00-17,1-22,11,9 ⇓2,4995840,7
17.04 06:00-17,20,00,2 ⇒1,4995810,5
17.04 05:00-17,4-23,12,2 ⇒3,1994830,0
17.04 04:00-17,1-23,72,8 ⇗3,6994810,0
17.04 03:00-16,1-21,01,9 ⇖4,0993730,0
17.04 02:00-16,3-25,45,1 ⇑10,0994790,0
17.04 01:00-15,9-25,25,4 ⇑7,4993730,0
17.04 00:00-17,3-22,62,0 ⇐2,8993870,1
Position: (72.783333333,-56.133333333)

[Back]